Des Moines (DSM/KDSM)

Map

Destinations

Information

Location
Des Moines, IA
Local Time
12:03 / 12:03 pm
GMT Time
18:03 / 6:03 pm
Gates
Unassigned
No FAA reported delays
METAR KDSM 191754Z 21008KT 10SM FEW250 05/M07 A3015 RMK AO2 SLP219 T00501067 10050 21056 58015 $
TAF KDSM 191722Z 1918/2018 24010KT P6SM FEW250 FM192300 20007KT P6SM SKC FM201600 21010G20KT P6SM SCT200